createdAt,value
2023-03-22T00:02:02.760Z,12.81
2023-03-22T00:04:34.424Z,12.81
2023-03-22T00:07:06.147Z,12.81
2023-03-22T00:09:37.829Z,12.84
2023-03-22T00:12:09.706Z,12.85
2023-03-22T00:14:41.520Z,12.87
2023-03-22T00:17:13.202Z,12.88
2023-03-22T00:19:45.028Z,12.85
2023-03-22T00:22:17.788Z,12.86
2023-03-22T00:24:49.480Z,12.88
2023-03-22T00:27:21.158Z,12.82
2023-03-22T00:29:53.200Z,12.86
2023-03-22T00:32:24.894Z,12.83
2023-03-22T00:34:58.862Z,12.82
2023-03-22T00:37:38.811Z,12.79
2023-03-22T00:40:14.245Z,12.72
2023-03-22T00:42:46.094Z,12.78
2023-03-22T00:45:17.808Z,12.75
2023-03-22T00:47:49.545Z,12.75
2023-03-22T00:50:23.209Z,12.78
2023-03-22T00:52:55.067Z,12.77
2023-03-22T00:55:27.865Z,12.70
2023-03-22T00:57:59.667Z,12.64
2023-03-22T01:00:33.628Z,12.62
2023-03-22T01:03:05.594Z,12.64
2023-03-22T01:05:37.765Z,12.67
2023-03-22T01:08:10.554Z,12.69
2023-03-22T01:10:43.802Z,12.72
2023-03-22T01:13:17.851Z,12.72
2023-03-22T01:15:51.168Z,12.68
2023-03-22T01:18:23.456Z,12.68
2023-03-22T01:20:55.408Z,12.68
2023-03-22T01:23:27.618Z,12.63
2023-03-22T01:25:59.811Z,12.58
2023-03-22T01:28:31.596Z,12.56
2023-03-22T01:31:04.079Z,12.55
2023-03-22T01:33:36.732Z,12.52
2023-03-22T01:36:08.688Z,12.50
2023-03-22T01:38:41.016Z,12.50
2023-03-22T01:41:12.934Z,12.47
2023-03-22T01:44:13.733Z,12.51
2023-03-22T01:46:47.829Z,12.53
2023-03-22T01:49:31.219Z,12.55
2023-03-22T01:52:14.685Z,12.56
2023-03-22T01:54:55.011Z,12.55
2023-03-22T01:57:40.932Z,12.47
2023-03-22T02:00:19.005Z,12.41
2023-03-22T02:03:19.012Z,12.40
2023-03-22T02:05:53.965Z,12.41
2023-03-22T02:08:29.061Z,12.45
2023-03-22T02:11:04.815Z,12.46
2023-03-22T02:13:51.816Z,12.44
2023-03-22T02:17:01.217Z,12.46
2023-03-22T02:19:45.564Z,12.44
2023-03-22T02:22:42.371Z,12.40
2023-03-22T02:25:51.941Z,12.35
2023-03-22T02:28:54.327Z,12.35
2023-03-22T02:31:51.184Z,12.30
2023-03-22T02:34:44.342Z,12.23
2023-03-22T02:37:37.724Z,12.21
2023-03-22T02:40:18.688Z,12.20
2023-03-22T02:43:08.324Z,12.18
2023-03-22T02:45:55.637Z,12.16
2023-03-22T02:48:32.486Z,12.11
2023-03-22T02:51:13.424Z,12.04
2023-03-22T02:53:57.955Z,12.04
2023-03-22T02:56:39.213Z,12.05
2023-03-22T02:59:15.965Z,12.08
2023-03-22T03:01:52.316Z,12.08
2023-03-22T03:04:37.477Z,12.08
2023-03-22T03:07:13.105Z,12.03
2023-03-22T03:09:49.153Z,11.94
2023-03-22T03:12:26.189Z,11.92
2023-03-22T03:15:00.529Z,11.89
2023-03-22T03:17:35.190Z,11.86
2023-03-22T03:20:16.796Z,11.80
2023-03-22T03:23:07.323Z,11.74
2023-03-22T03:26:01.603Z,11.72
2023-03-22T03:29:05.669Z,11.68
2023-03-22T03:31:46.403Z,11.64
2023-03-22T03:34:36.272Z,11.63
2023-03-22T03:37:15.066Z,11.60
2023-03-22T03:40:01.696Z,11.57
2023-03-22T03:42:34.530Z,11.54
2023-03-22T03:45:08.469Z,11.50
2023-03-22T03:47:41.052Z,11.44
2023-03-22T03:50:16.206Z,11.35
2023-03-22T03:52:52.366Z,11.31
2023-03-22T03:55:27.168Z,11.27
2023-03-22T03:57:58.988Z,11.23
2023-03-22T04:00:31.133Z,11.18
2023-03-22T04:03:31.503Z,11.12
2023-03-22T04:06:18.088Z,11.07
2023-03-22T04:08:56.684Z,11.03
2023-03-22T04:11:32.767Z,10.97
2023-03-22T04:14:07.083Z,10.92
2023-03-22T04:16:38.810Z,10.80
2023-03-22T04:19:14.554Z,10.69
2023-03-22T04:21:46.355Z,10.70
2023-03-22T04:24:18.129Z,10.72
2023-03-22T04:26:52.706Z,10.70
2023-03-22T04:29:32.121Z,10.68
2023-03-22T04:32:19.523Z,10.63
2023-03-22T04:34:52.680Z,10.58
2023-03-22T04:37:27.161Z,10.55
2023-03-22T04:40:16.545Z,10.54
2023-03-22T04:43:05.092Z,10.48
2023-03-22T04:46:01.736Z,10.44
2023-03-22T04:48:41.748Z,10.41
2023-03-22T04:51:16.118Z,10.35
2023-03-22T04:54:00.319Z,10.33
2023-03-22T04:56:32.134Z,10.31
2023-03-22T04:59:04.629Z,10.28
2023-03-22T05:01:37.581Z,10.25
2023-03-22T05:04:21.934Z,10.22
2023-03-22T05:06:58.453Z,10.23
2023-03-22T05:09:37.709Z,10.21
2023-03-22T05:12:09.500Z,10.20
2023-03-22T05:14:51.448Z,10.24
2023-03-22T05:17:27.924Z,10.23
2023-03-22T05:20:09.317Z,10.19
2023-03-22T05:22:45.315Z,10.24
2023-03-22T05:25:17.032Z,10.31
2023-03-22T05:27:54.168Z,10.35
2023-03-22T05:30:52.073Z,10.42
2023-03-22T05:33:34.781Z,10.56
2023-03-22T05:36:08.952Z,11.25
2023-03-22T05:38:52.434Z,11.80
2023-03-22T05:41:24.500Z,11.92
2023-03-22T05:43:56.371Z,11.89
2023-03-22T05:46:28.468Z,11.85
2023-03-22T05:49:31.803Z,11.85
2023-03-22T05:52:06.080Z,11.85
2023-03-22T05:54:56.822Z,11.86
2023-03-22T05:57:30.156Z,11.89
2023-03-22T06:00:02.594Z,12.06
2023-03-22T06:02:47.295Z,12.56
2023-03-22T06:05:21.069Z,12.64
2023-03-22T06:07:53.966Z,13.26
2023-03-22T06:10:28.122Z,13.66
2023-03-22T06:13:00.418Z,14.12
2023-03-22T06:15:36.214Z,14.35
2023-03-22T06:18:28.279Z,14.75
2023-03-22T06:21:07.401Z,15.15
2023-03-22T06:23:39.235Z,15.49
2023-03-22T06:26:13.300Z,15.67
2023-03-22T06:28:46.893Z,15.77
2023-03-22T06:31:18.706Z,15.98
2023-03-22T06:33:57.734Z,16.10
2023-03-22T06:36:36.029Z,16.39
2023-03-22T06:39:17.872Z,16.60
2023-03-22T06:41:50.720Z,16.66
2023-03-22T06:44:22.999Z,16.75
2023-03-22T06:47:10.556Z,16.72
2023-03-22T06:49:58.814Z,16.73
2023-03-22T06:52:42.173Z,16.96
2023-03-22T06:55:13.951Z,17.25
2023-03-22T06:57:45.678Z,17.29
2023-03-22T07:00:17.708Z,17.47
2023-03-22T07:02:52.231Z,17.70
2023-03-22T07:05:41.104Z,18.02
2023-03-22T07:08:12.933Z,18.20
2023-03-22T07:10:53.021Z,18.42
2023-03-22T07:13:28.792Z,18.64
2023-03-22T07:16:05.216Z,18.57
2023-03-22T07:18:58.256Z,18.76
2023-03-22T07:21:30.052Z,18.94
2023-03-22T07:24:07.803Z,19.07
2023-03-22T07:26:40.958Z,19.09
2023-03-22T07:29:14.464Z,19.30
2023-03-22T07:31:46.265Z,19.37
2023-03-22T07:34:28.180Z,19.41
2023-03-22T07:37:07.414Z,19.74
2023-03-22T07:39:39.520Z,19.77
2023-03-22T07:42:11.826Z,20.15
2023-03-22T07:44:52.517Z,20.44
2023-03-22T07:47:39.520Z,20.90
2023-03-22T07:50:23.791Z,21.28
2023-03-22T07:53:00.377Z,21.31
2023-03-22T07:55:32.226Z,21.35
2023-03-22T07:58:04.481Z,21.32
2023-03-22T08:00:36.234Z,21.35
2023-03-22T08:03:43.025Z,21.92
2023-03-22T08:06:37.185Z,22.11
2023-03-22T08:09:09.146Z,22.26
2023-03-22T08:11:41.298Z,22.61
2023-03-22T08:14:13.931Z,22.68
2023-03-22T08:16:46.438Z,22.95
2023-03-22T08:19:18.640Z,23.10
2023-03-22T08:21:51.573Z,23.24
2023-03-22T08:24:49.138Z,23.72
2023-03-22T08:27:33.485Z,24.07
2023-03-22T08:30:06.800Z,24.09
2023-03-22T08:32:41.384Z,23.61
2023-03-22T08:35:13.349Z,23.56
2023-03-22T08:37:46.191Z,23.60
2023-03-22T08:40:19.403Z,23.63
2023-03-22T08:42:56.790Z,23.85
2023-03-22T08:45:29.109Z,23.97
2023-03-22T08:48:09.664Z,23.93
2023-03-22T08:51:01.144Z,23.75
2023-03-22T08:53:42.102Z,23.71
2023-03-22T08:56:49.234Z,23.83
2023-03-22T08:59:41.147Z,23.88
2023-03-22T09:02:27.502Z,24.02
2023-03-22T09:05:00.561Z,23.99
2023-03-22T09:07:32.479Z,23.81
2023-03-22T09:10:16.801Z,23.52
2023-03-22T09:12:51.399Z,23.65
2023-03-22T09:15:23.272Z,23.66
2023-03-22T09:18:09.598Z,23.52
2023-03-22T09:20:41.592Z,23.50
2023-03-22T09:23:15.548Z,23.60
2023-03-22T09:25:48.678Z,23.59
2023-03-22T09:28:25.340Z,23.63
2023-03-22T09:31:03.451Z,23.65
2023-03-22T09:33:38.847Z,23.70
2023-03-22T09:36:11.989Z,23.93
2023-03-22T09:38:45.403Z,23.91
2023-03-22T09:41:22.535Z,24.09
2023-03-22T09:43:59.775Z,24.17
2023-03-22T09:46:38.839Z,24.28
2023-03-22T09:49:26.186Z,24.33
2023-03-22T09:51:59.995Z,24.52
2023-03-22T09:54:35.941Z,24.50
2023-03-22T09:57:16.324Z,24.35
2023-03-22T10:00:15.609Z,24.62
2023-03-22T10:03:02.642Z,24.18
2023-03-22T10:05:48.283Z,23.65
2023-03-22T10:08:48.326Z,23.55
2023-03-22T10:11:32.033Z,23.85
2023-03-22T10:14:09.432Z,23.86
2023-03-22T10:16:41.806Z,24.11
2023-03-22T10:19:29.076Z,24.12
2023-03-22T10:22:04.057Z,24.54
2023-03-22T10:24:38.453Z,24.63
2023-03-22T10:27:17.423Z,24.36
2023-03-22T10:29:54.900Z,24.18
2023-03-22T10:32:57.500Z,24.15
2023-03-22T10:35:31.735Z,24.79
2023-03-22T10:38:07.370Z,24.85
2023-03-22T10:40:42.222Z,25.16
2023-03-22T10:43:30.121Z,25.65
2023-03-22T10:46:07.648Z,25.49
2023-03-22T10:48:45.538Z,25.14
2023-03-22T10:51:30.729Z,24.96
2023-03-22T10:54:03.367Z,25.23
2023-03-22T10:56:35.035Z,25.74
2023-03-22T10:59:06.789Z,25.94
2023-03-22T11:01:44.899Z,25.97
2023-03-22T11:04:17.181Z,25.88
2023-03-22T11:06:53.347Z,25.90
2023-03-22T11:09:26.472Z,25.17
2023-03-22T11:12:01.480Z,24.63
2023-03-22T11:14:36.870Z,24.49
2023-03-22T11:17:14.246Z,24.77
2023-03-22T11:20:01.288Z,24.60
2023-03-22T11:22:45.370Z,24.95
2023-03-22T11:25:28.419Z,25.09
2023-03-22T11:28:16.746Z,25.36
2023-03-22T11:31:08.740Z,25.37
2023-03-22T11:33:58.208Z,25.09
2023-03-22T11:36:30.022Z,25.40
2023-03-22T11:39:07.386Z,25.36
2023-03-22T11:41:40.866Z,25.20
2023-03-22T11:44:16.610Z,25.24
2023-03-22T11:47:00.770Z,25.32
2023-03-22T11:49:45.563Z,24.83
2023-03-22T11:52:22.916Z,24.46
2023-03-22T11:54:56.234Z,24.86
2023-03-22T11:57:31.547Z,24.86
2023-03-22T12:00:18.211Z,25.10
2023-03-22T12:02:54.941Z,24.92
2023-03-22T12:05:41.465Z,25.09
2023-03-22T12:08:25.307Z,25.03
2023-03-22T12:11:17.831Z,24.38
2023-03-22T12:14:00.097Z,24.50
2023-03-22T12:16:41.029Z,24.54
2023-03-22T12:19:41.835Z,24.51
2023-03-22T12:22:23.201Z,24.71
2023-03-22T12:24:54.879Z,24.39
2023-03-22T12:27:42.588Z,24.23
2023-03-22T12:30:22.027Z,24.31
2023-03-22T12:33:00.116Z,24.38
2023-03-22T12:35:35.184Z,24.08
2023-03-22T12:38:36.735Z,24.05
2023-03-22T12:41:14.891Z,23.68
2023-03-22T12:43:56.609Z,23.59
2023-03-22T12:46:40.102Z,23.70
2023-03-22T12:49:44.350Z,23.56
2023-03-22T12:52:19.056Z,23.61
2023-03-22T12:54:52.576Z,23.77
2023-03-22T12:57:24.575Z,23.94
2023-03-22T13:00:00.446Z,23.87
2023-03-22T13:02:34.359Z,23.63
2023-03-22T13:05:09.372Z,23.61
2023-03-22T13:07:47.086Z,23.60
2023-03-22T13:10:31.205Z,23.49
2023-03-22T13:13:14.764Z,23.47
2023-03-22T13:16:09.621Z,23.46
2023-03-22T13:18:44.547Z,23.32
2023-03-22T13:21:19.310Z,23.21
2023-03-22T13:24:01.994Z,23.20
2023-03-22T13:26:43.679Z,23.13
2023-03-22T13:29:17.609Z,23.12
2023-03-22T13:31:52.374Z,23.12
2023-03-22T13:34:32.214Z,23.03
2023-03-22T13:37:09.935Z,22.96
2023-03-22T13:39:41.698Z,23.09
2023-03-22T13:42:20.015Z,23.04
2023-03-22T13:44:57.066Z,22.86
2023-03-22T13:47:36.176Z,22.84
2023-03-22T13:50:23.476Z,22.86
2023-03-22T13:53:15.785Z,22.85
2023-03-22T13:55:51.416Z,22.74
2023-03-22T13:58:49.989Z,22.64
2023-03-22T14:01:29.370Z,22.51
2023-03-22T14:04:06.887Z,22.23
2023-03-22T14:06:54.251Z,22.33
2023-03-22T14:09:35.868Z,22.34
2023-03-22T14:12:21.245Z,22.28
2023-03-22T14:14:57.055Z,22.10
2023-03-22T14:17:47.051Z,22.26
2023-03-22T14:20:23.388Z,22.23
